Time;durP1;ratioP1;P1;durP2;ratioP2;P2;SDS_P1;SDS_P2;PMS_P1;PMS_P2;Temp;Humidity;BMP_temperature;BMP_pressure;BME280_temperature;BME280_humidity;BME280_pressure;Samples;Min_cycle;Max_cycle;Signal;HPM_P1;HPM_P2
2023/09/18 00:00:51;;;;;;;9.33;8.33;;;18.40;1.00;;;;;;4996693;28;20571;-52
2023/09/18 00:03:19;;;;;;;13.03;8.40;;;18.40;1.00;;;;;;4994984;28;20549;-51
2023/09/18 00:05:45;;;;;;;9.40;8.50;;;18.30;1.00;;;;;;5001552;28;21594;-50
2023/09/18 00:08:11;;;;;;;9.50;8.57;;;18.30;1.00;;;;;;4996474;28;20446;-50
2023/09/18 00:10:37;;;;;;;10.20;8.90;;;18.20;23.70;;;;;;4995613;28;20498;-50
2023/09/18 00:13:03;;;;;;;12.10;9.53;;;18.20;93.40;;;;;;4996197;28;20186;-50
2023/09/18 00:15:28;;;;;;;9.83;8.90;;;18.20;99.90;;;;;;4996543;28;20191;-49
2023/09/18 00:17:54;;;;;;;9.50;8.50;;;18.20;99.90;;;;;;4996758;28;20223;-50
2023/09/18 00:20:20;;;;;;;10.13;9.17;;;18.10;99.90;;;;;;4996153;28;20267;-50
2023/09/18 00:22:46;;;;;;;9.87;8.87;;;18.10;99.90;;;;;;4998104;28;20592;-50
2023/09/18 00:25:12;;;;;;;9.90;9.00;;;18.10;99.90;;;;;;4996650;28;20607;-49
2023/09/18 00:27:37;;;;;;;9.83;8.93;;;18.10;99.90;;;;;;4997014;28;20580;-48
2023/09/18 00:30:04;;;;;;;9.27;8.47;;;18.10;1.00;;;;;;4998037;28;20187;-49
2023/09/18 00:32:30;;;;;;;10.40;8.93;;;18.10;1.00;;;;;;5005518;28;20190;-51
2023/09/18 00:34:56;;;;;;;9.97;8.97;;;18.10;1.00;;;;;;4998849;28;20448;-49
2023/09/18 00:37:21;;;;;;;13.40;9.00;;;18.10;1.00;;;;;;4996335;28;20248;-49
2023/09/18 00:39:49;;;;;;;9.70;8.70;;;18.10;99.90;;;;;;4998940;28;20180;-49
2023/09/18 00:42:16;;;;;;;11.10;9.07;;;18.00;1.00;;;;;;4996697;28;20202;-50
2023/09/18 00:44:41;;;;;;;10.10;9.10;;;18.00;1.00;;;;;;4997367;28;20574;-49
2023/09/18 00:47:08;;;;;;;9.83;8.93;;;18.00;1.00;;;;;;4998842;28;20537;-49
2023/09/18 00:49:36;;;;;;;10.40;9.33;;;18.00;1.00;;;;;;4997424;28;20741;-49
2023/09/18 00:52:03;;;;;;;9.27;8.37;;;18.00;1.00;;;;;;4997073;28;20453;-49
2023/09/18 00:54:29;;;;;;;9.10;8.30;;;18.00;1.00;;;;;;5003820;28;20447;-50
2023/09/18 00:56:55;;;;;;;10.20;9.13;;;17.90;1.00;;;;;;5000880;28;20465;-49
2023/09/18 00:59:21;;;;;;;10.03;9.03;;;17.90;1.00;;;;;;4997709;28;20433;-50
2023/09/18 01:01:49;;;;;;;13.87;9.83;;;17.80;1.00;;;;;;4997158;28;20203;-49
2023/09/18 01:04:17;;;;;;;9.30;8.43;;;17.80;1.00;;;;;;4996501;28;20483;-49
2023/09/18 01:06:42;;;;;;;9.47;8.47;;;17.80;1.00;;;;;;4995684;28;20833;-49
2023/09/18 01:09:12;;;;;;;11.87;8.53;;;17.80;1.00;;;;;;4995780;28;20441;-49
2023/09/18 01:11:49;;;;;;;9.43;8.50;;;17.70;1.00;;;;;;5001432;28;20196;-49
2023/09/18 01:14:29;;;;;;;9.87;8.73;;;17.70;1.00;;;;;;4996823;28;20437;-49
2023/09/18 01:16:58;;;;;;;9.47;8.50;;;17.70;1.00;;;;;;5000951;28;20568;-50
2023/09/18 01:19:40;;;;;;;10.37;8.50;;;17.70;96.80;;;;;;4999480;28;20813;-50
2023/09/18 01:22:08;;;;;;;11.50;8.53;;;17.70;93.10;;;;;;5002535;28;20446;-49
2023/09/18 01:24:35;;;;;;;9.17;8.27;;;17.80;1.00;;;;;;5001983;28;20558;-50
2023/09/18 01:27:00;;;;;;;9.37;8.53;;;17.70;1.00;;;;;;5003014;28;20446;-49
2023/09/18 01:29:26;;;;;;;11.50;8.93;;;17.80;1.00;;;;;;5009258;28;21064;-49
2023/09/18 01:31:52;;;;;;;8.90;8.00;;;17.70;1.00;;;;;;5005992;28;20194;-49
2023/09/18 01:34:33;;;;;;;9.90;8.90;;;17.70;1.00;;;;;;4999830;28;20204;-49
2023/09/18 01:37:00;;;;;;;12.00;8.67;;;17.80;1.00;;;;;;4999671;28;20470;-49
2023/09/18 01:39:31;;;;;;;10.00;9.00;;;17.70;1.00;;;;;;5006092;28;20458;-50
2023/09/18 01:42:01;;;;;;;10.67;9.30;;;17.70;1.00;;;;;;5002553;28;20948;-50
2023/09/18 01:44:27;;;;;;;9.70;8.80;;;17.70;1.00;;;;;;5000671;28;20456;-50
2023/09/18 01:46:55;;;;;;;10.63;9.63;;;17.70;19.10;;;;;;5002360;28;20446;-51
2023/09/18 01:49:47;;;;;;;13.17;10.43;;;17.60;36.20;;;;;;4998393;28;20949;-51
2023/09/18 01:52:13;;;;;;;9.43;8.47;;;17.60;1.00;;;;;;4999587;28;20975;-49
2023/09/18 01:54:39;;;;;;;10.27;9.20;;;17.60;1.00;;;;;;5007114;28;20574;-49
2023/09/18 01:57:07;;;;;;;10.70;9.70;;;17.60;23.00;;;;;;4998670;28;20323;-51
2023/09/18 01:59:33;;;;;;;10.50;9.50;;;17.60;1.00;;;;;;4999140;28;20187;-49
2023/09/18 02:02:00;;;;;;;10.23;9.10;;;17.60;8.40;;;;;;5005315;28;20575;-49
2023/09/18 02:04:27;;;;;;;10.47;9.47;;;17.70;1.00;;;;;;5013868;28;20449;-50
2023/09/18 02:06:52;;;;;;;10.07;9.03;;;17.70;1.00;;;;;;5013829;28;20443;-50
2023/09/18 02:09:18;;;;;;;9.03;8.20;;;17.70;1.00;;;;;;5012320;28;20775;-51
2023/09/18 02:11:47;;;;;;;10.23;9.23;;;17.70;1.00;;;;;;5003395;28;20283;-49
2023/09/18 02:14:13;;;;;;;13.27;9.50;;;17.70;1.00;;;;;;5001079;28;20196;-49
2023/09/18 02:16:43;;;;;;;12.10;9.43;;;17.80;99.90;;;;;;5001106;28;20493;-49
2023/09/18 02:19:28;;;;;;;10.00;9.00;;;17.80;99.90;;;;;;5003840;28;20197;-49
2023/09/18 02:21:57;;;;;;;9.50;8.50;;;17.70;99.90;;;;;;5024007;28;20491;-49
2023/09/18 02:24:23;;;;;;;11.63;9.03;;;17.70;99.90;;;;;;5029240;28;20843;-50
2023/09/18 02:26:49;;;;;;;14.50;9.10;;;17.70;99.90;;;;;;5026298;28;20453;-49
2023/09/18 02:29:14;;;;;;;9.43;8.47;;;17.70;99.90;;;;;;5027462;28;20443;-51
2023/09/18 02:31:40;;;;;;;10.70;8.60;;;17.70;99.90;;;;;;5025701;28;20197;-51
2023/09/18 02:34:07;;;;;;;9.97;9.07;;;17.70;99.90;;;;;;5026196;28;20189;-49
2023/09/18 02:36:33;;;;;;;9.40;8.50;;;17.70;99.90;;;;;;5026269;28;20712;-49
2023/09/18 02:38:58;;;;;;;13.00;9.30;;;17.60;99.90;;;;;;5029543;28;20507;-49
2023/09/18 02:41:24;;;;;;;12.60;9.43;;;17.60;99.90;;;;;;5027564;28;20440;-49
2023/09/18 02:43:50;;;;;;;9.70;8.80;;;17.60;99.90;;;;;;5027270;28;20661;-49
2023/09/18 02:46:15;;;;;;;10.93;9.30;;;17.60;99.90;;;;;;5027167;28;20194;-50
2023/09/18 02:48:41;;;;;;;9.83;8.60;;;17.60;99.90;;;;;;5027397;28;20198;-49
2023/09/18 02:51:06;;;;;;;10.23;9.13;;;17.60;99.90;;;;;;5028320;28;20215;-49
2023/09/18 02:53:32;;;;;;;9.80;8.87;;;17.50;99.90;;;;;;5003987;28;20207;-49
2023/09/18 02:55:59;;;;;;;10.37;8.90;;;17.50;1.00;;;;;;4997228;28;20231;-49
2023/09/18 02:58:26;;;;;;;10.00;9.10;;;17.40;1.00;;;;;;4996901;28;20201;-49
2023/09/18 03:00:53;;;;;;;10.50;9.50;;;17.40;1.00;;;;;;4997594;28;20466;-48
2023/09/18 03:03:19;;;;;;;9.47;8.57;;;17.40;19.70;;;;;;5000854;28;20442;-49
2023/09/18 03:05:45;;;;;;;10.57;9.57;;;17.40;1.00;;;;;;4998484;28;20456;-51
2023/09/18 03:08:12;;;;;;;9.90;8.97;;;17.40;1.00;;;;;;5006120;28;20187;-49
2023/09/18 03:10:39;;;;;;;10.13;9.23;;;17.40;1.00;;;;;;4996726;28;20190;-49
2023/09/18 03:13:07;;;;;;;10.57;9.47;;;17.30;1.00;;;;;;5000256;28;20461;-49
2023/09/18 03:15:32;;;;;;;14.20;9.43;;;17.30;1.00;;;;;;4999919;28;21165;-49
2023/09/18 03:17:59;;;;;;;11.17;10.00;;;17.30;1.00;;;;;;5002732;28;20574;-50
2023/09/18 03:20:26;;;;;;;10.07;9.17;;;17.30;20.10;;;;;;4997312;28;20192;-49
2023/09/18 03:22:52;;;;;;;11.53;10.43;;;17.30;60.00;;;;;;5005350;28;20989;-49
2023/09/18 03:25:18;;;;;;;10.20;9.10;;;17.30;99.90;;;;;;5000893;28;20454;-49
2023/09/18 03:27:43;;;;;;;10.73;9.10;;;17.30;91.00;;;;;;5002655;28;20482;-49
2023/09/18 03:30:12;;;;;;;10.57;9.50;;;17.30;99.90;;;;;;4999326;28;20242;-50
2023/09/18 03:32:38;;;;;;;12.37;9.77;;;17.30;41.90;;;;;;5000431;28;20192;-49
2023/09/18 03:35:04;;;;;;;10.40;9.40;;;17.30;1.00;;;;;;5000641;28;20447;-50
2023/09/18 03:37:29;;;;;;;10.97;9.70;;;17.30;10.10;;;;;;4999218;28;20224;-49
2023/09/18 03:39:55;;;;;;;12.13;9.70;;;17.30;1.00;;;;;;4997579;28;20469;-50
2023/09/18 03:42:20;;;;;;;13.10;9.20;;;17.40;1.00;;;;;;4997380;28;20200;-50
2023/09/18 03:44:46;;;;;;;10.83;9.47;;;17.40;1.00;;;;;;4998943;28;20193;-49
2023/09/18 03:47:12;;;;;;;10.63;9.20;;;17.40;1.00;;;;;;4998578;28;20190;-53
2023/09/18 03:49:37;;;;;;;13.80;9.70;;;17.40;1.00;;;;;;4996940;28;20191;-49
2023/09/18 03:52:03;;;;;;;14.10;9.60;;;17.40;1.00;;;;;;4997168;28;20556;-50
2023/09/18 03:54:28;;;;;;;10.93;9.80;;;17.40;1.00;;;;;;4997897;28;20321;-49
2023/09/18 03:56:54;;;;;;;13.73;10.23;;;17.40;1.00;;;;;;4999268;28;20260;-50
2023/09/18 03:59:19;;;;;;;9.83;8.80;;;17.40;1.00;;;;;;4996822;28;20221;-50
2023/09/18 04:01:45;;;;;;;10.93;9.83;;;17.40;1.00;;;;;;4997116;28;20195;-50
2023/09/18 04:04:11;;;;;;;13.03;10.10;;;17.50;1.00;;;;;;4996732;28;20214;-49
2023/09/18 04:06:42;;;;;;;11.90;9.33;;;17.50;99.90;;;;;;5000172;28;20194;-49
2023/09/18 04:09:08;;;;;;;10.70;9.20;;;17.50;99.90;;;;;;5000614;28;20331;-50
2023/09/18 04:11:33;;;;;;;10.00;8.80;;;17.50;99.90;;;;;;5002891;28;20439;-48
2023/09/18 04:14:00;;;;;;;9.57;8.67;;;17.50;99.90;;;;;;5000932;28;20447;-49
2023/09/18 04:16:27;;;;;;;10.23;9.10;;;17.50;99.90;;;;;;4995943;28;20669;-50
2023/09/18 04:18:53;;;;;;;13.07;9.97;;;17.40;99.90;;;;;;4999808;28;20468;-49
2023/09/18 04:21:21;;;;;;;10.47;9.47;;;17.30;99.90;;;;;;5002459;28;20444;-49
2023/09/18 04:23:46;;;;;;;10.50;9.40;;;17.30;99.90;;;;;;5004847;28;20506;-50
2023/09/18 04:26:14;;;;;;;9.93;8.93;;;17.30;1.00;;;;;;5000601;28;20479;-49
2023/09/18 04:28:39;;;;;;;10.47;9.17;;;17.20;1.00;;;;;;4996004;28;20221;-50
2023/09/18 04:31:05;;;;;;;11.23;10.03;;;17.20;1.00;;;;;;4995710;28;20538;-50
2023/09/18 04:33:30;;;;;;;11.00;9.90;;;17.20;1.00;;;;;;5000397;28;20677;-49
2023/09/18 04:35:56;;;;;;;11.10;10.00;;;17.20;95.10;;;;;;5001177;28;20198;-47
2023/09/18 04:38:22;;;;;;;10.37;9.27;;;17.20;21.80;;;;;;4995328;28;20194;-50
2023/09/18 04:40:47;;;;;;;10.67;9.67;;;17.10;99.90;;;;;;4996745;28;20187;-49
2023/09/18 04:43:13;;;;;;;13.93;10.60;;;17.10;99.90;;;;;;4999590;28;20537;-49
2023/09/18 04:45:38;;;;;;;11.37;10.17;;;17.10;99.90;;;;;;4999518;28;20191;-49
2023/09/18 04:48:05;;;;;;;14.43;10.27;;;17.20;99.90;;;;;;4996179;28;20564;-50
2023/09/18 04:50:33;;;;;;;11.83;9.43;;;17.20;99.90;;;;;;4999355;28;20205;-51
2023/09/18 04:52:59;;;;;;;11.13;9.50;;;17.20;99.90;;;;;;5003417;28;20839;-49
2023/09/18 04:55:25;;;;;;;12.73;10.87;;;17.20;99.90;;;;;;5005211;28;20461;-49
2023/09/18 04:57:50;;;;;;;12.63;10.77;;;17.20;99.90;;;;;;5004330;28;20222;-49
2023/09/18 05:00:16;;;;;;;11.43;9.87;;;17.20;54.30;;;;;;4999382;28;20293;-51
2023/09/18 05:02:42;;;;;;;10.97;9.87;;;17.30;99.90;;;;;;5004251;28;20576;-49
2023/09/18 05:05:08;;;;;;;11.03;9.97;;;17.30;28.30;;;;;;4999785;28;20194;-49
2023/09/18 05:07:34;;;;;;;10.13;9.13;;;17.30;1.00;;;;;;5000003;28;20449;-49
2023/09/18 05:10:00;;;;;;;10.87;9.80;;;17.30;1.00;;;;;;5003359;28;20186;-49
2023/09/18 05:12:25;;;;;;;10.90;9.80;;;17.40;1.00;;;;;;4998616;28;20678;-50
2023/09/18 05:14:51;;;;;;;12.93;10.70;;;17.30;1.00;;;;;;5000115;28;20283;-49
2023/09/18 05:17:17;;;;;;;12.70;11.03;;;17.40;1.00;;;;;;4999099;28;20315;-50
2023/09/18 05:19:44;;;;;;;12.17;9.63;;;17.40;1.00;;;;;;5000155;28;20201;-49
2023/09/18 05:22:10;;;;;;;11.60;9.60;;;17.40;99.90;;;;;;4998789;28;20484;-50
2023/09/18 05:24:39;;;;;;;10.50;9.50;;;17.50;99.90;;;;;;5003477;28;20485;-49
2023/09/18 05:27:08;;;;;;;13.10;9.90;;;17.50;99.90;;;;;;5002181;28;20496;-49
2023/09/18 05:29:36;;;;;;;10.80;9.70;;;17.60;99.90;;;;;;5003479;28;20796;-49
2023/09/18 05:32:02;;;;;;;11.83;10.67;;;17.60;99.90;;;;;;5003810;28;20438;-49
2023/09/18 05:34:27;;;;;;;12.40;10.17;;;17.70;19.00;;;;;;5007245;28;20867;-49
2023/09/18 05:36:53;;;;;;;15.90;10.47;;;17.70;1.00;;;;;;4999292;28;20537;-49
2023/09/18 05:39:18;;;;;;;16.03;11.17;;;17.70;1.00;;;;;;5002096;28;20188;-50
2023/09/18 05:41:44;;;;;;;14.83;10.80;;;17.80;1.00;;;;;;4999545;28;20193;-49
2023/09/18 05:44:10;;;;;;;16.50;9.67;;;17.80;1.00;;;;;;5002665;28;20278;-50
2023/09/18 05:46:36;;;;;;;12.37;10.37;;;17.80;1.00;;;;;;5006368;28;20194;-49
2023/09/18 05:49:02;;;;;;;11.10;10.00;;;17.90;1.00;;;;;;4999859;28;20437;-49
2023/09/18 05:51:27;;;;;;;14.33;9.63;;;17.90;1.00;;;;;;5001529;28;20222;-49
2023/09/18 05:53:53;;;;;;;10.47;9.37;;;18.00;1.00;;;;;;5005273;28;20475;-50
2023/09/18 05:56:19;;;;;;;13.10;9.80;;;18.00;1.00;;;;;;5001754;28;20219;-49
2023/09/18 05:58:44;;;;;;;11.20;10.10;;;18.10;1.00;;;;;;5000401;28;20532;-51
2023/09/18 06:01:10;;;;;;;10.50;9.20;;;18.20;1.00;;;;;;5007529;28;20520;-49
2023/09/18 06:03:35;;;;;;;10.57;9.40;;;18.20;1.00;;;;;;4998076;28;20654;-49
2023/09/18 06:06:05;;;;;;;14.27;9.23;;;18.30;99.90;;;;;;4998462;28;20209;-50
2023/09/18 06:08:31;;;;;;;14.40;10.60;;;18.30;99.90;;;;;;5001576;28;20213;-49
2023/09/18 06:10:57;;;;;;;10.93;9.53;;;18.30;99.90;;;;;;4998135;28;20439;-49
2023/09/18 06:13:27;;;;;;;12.60;9.97;;;18.40;99.90;;;;;;4998798;28;20534;-49
2023/09/18 06:15:54;;;;;;;10.37;9.33;;;18.50;99.90;;;;;;5000105;28;20446;-49
2023/09/18 06:18:20;;;;;;;11.10;9.93;;;18.60;99.90;;;;;;5004926;28;20448;-51
2023/09/18 06:20:47;;;;;;;12.00;9.50;;;18.70;99.90;;;;;;5002102;28;20526;-50
2023/09/18 06:23:12;;;;;;;12.57;9.53;;;18.70;99.90;;;;;;4999894;28;20493;-49
2023/09/18 06:25:39;;;;;;;15.73;9.67;;;18.80;99.90;;;;;;4999984;28;20440;-50
2023/09/18 06:28:05;;;;;;;12.17;9.50;;;19.00;99.90;;;;;;4999059;28;20550;-50
2023/09/18 06:30:33;;;;;;;11.50;10.07;;;19.10;99.90;;;;;;4999504;28;20445;-51
2023/09/18 06:33:03;;;;;;;13.03;10.00;;;19.20;93.70;;;;;;4997486;28;20671;-50
2023/09/18 06:35:29;;;;;;;10.53;9.23;;;19.30;60.80;;;;;;4998600;28;20535;-51
2023/09/18 06:37:58;;;;;;;11.07;9.20;;;19.40;56.00;;;;;;5002055;28;20605;-54
2023/09/18 06:40:25;;;;;;;12.33;9.30;;;19.50;34.40;;;;;;5003114;28;20203;-51
2023/09/18 06:42:51;;;;;;;11.00;9.80;;;19.60;29.00;;;;;;5000707;28;20438;-50
2023/09/18 06:45:17;;;;;;;13.33;9.07;;;19.60;11.70;;;;;;4999229;28;20475;-49
2023/09/18 06:47:43;;;;;;;9.37;8.47;;;19.60;7.90;;;;;;5001884;28;20475;-48
2023/09/18 06:50:09;;;;;;;16.00;9.00;;;19.60;1.00;;;;;;5003874;28;20203;-50
2023/09/18 06:52:34;;;;;;;14.80;10.03;;;19.70;4.80;;;;;;4995620;28;20319;-52
2023/09/18 06:55:00;;;;;;;13.57;9.37;;;19.70;1.00;;;;;;5001430;28;20946;-52
2023/09/18 06:57:26;;;;;;;9.83;8.73;;;19.70;1.00;;;;;;4998226;28;20224;-53
2023/09/18 06:59:51;;;;;;;9.43;8.43;;;19.80;1.00;;;;;;5001433;28;20180;-52
2023/09/18 07:02:17;;;;;;;9.80;8.77;;;19.90;1.00;;;;;;4998622;28;20199;-52
2023/09/18 07:04:45;;;;;;;10.53;8.83;;;20.00;1.00;;;;;;4996307;28;20191;-51
2023/09/18 07:07:14;;;;;;;9.27;8.43;;;20.10;1.00;;;;;;5000276;28;20196;-52
2023/09/18 07:09:41;;;;;;;12.33;9.27;;;20.20;1.00;;;;;;4998862;28;20989;-52
2023/09/18 07:12:09;;;;;;;10.00;9.00;;;20.30;1.00;;;;;;4997868;28;20439;-53
2023/09/18 07:14:35;;;;;;;9.57;8.50;;;20.40;1.00;;;;;;5001600;28;20439;-52
2023/09/18 07:17:02;;;;;;;12.20;11.00;;;20.50;1.00;;;;;;5008637;28;20492;-52
2023/09/18 07:19:27;;;;;;;12.43;9.07;;;20.70;1.00;;;;;;5001510;28;20451;-52
2023/09/18 07:21:53;;;;;;;31.87;28.00;;;21.00;1.00;;;;;;5001696;28;20438;-51
2023/09/18 07:24:20;;;;;;;9.27;8.20;;;21.20;1.00;;;;;;5003713;28;20188;-53
2023/09/18 07:26:49;;;;;;;15.80;7.93;;;21.30;1.00;;;;;;5003999;28;20197;-52
2023/09/18 07:29:15;;;;;;;9.27;8.30;;;21.30;1.00;;;;;;5000493;28;20978;-52
2023/09/18 07:31:44;;;;;;;11.40;8.77;;;21.40;1.00;;;;;;5001298;28;20845;-52
2023/09/18 07:34:10;;;;;;;10.73;8.30;;;21.50;1.00;;;;;;5000002;28;20458;-53
2023/09/18 07:36:36;;;;;;;8.50;7.70;;;21.60;1.00;;;;;;4996495;28;20901;-53
2023/09/18 07:39:04;;;;;;;11.37;8.40;;;21.60;1.00;;;;;;4996943;28;20469;-51
2023/09/18 07:41:29;;;;;;;10.13;8.27;;;21.60;1.00;;;;;;5000116;28;20204;-53
2023/09/18 07:43:57;;;;;;;8.67;7.87;;;21.50;1.00;;;;;;4997239;28;20486;-52
2023/09/18 07:46:22;;;;;;;12.40;8.70;;;21.50;1.00;;;;;;4996929;28;20201;-53
2023/09/18 07:48:48;;;;;;;10.13;8.37;;;21.50;1.00;;;;;;4999626;28;21209;-52
2023/09/18 07:51:15;;;;;;;9.37;8.40;;;21.60;1.00;;;;;;4997138;28;20211;-52
2023/09/18 07:53:42;;;;;;;9.00;8.10;;;21.70;1.00;;;;;;4999547;28;20192;-52
2023/09/18 07:56:07;;;;;;;12.50;9.10;;;21.80;1.00;;;;;;4997794;28;20532;-51
2023/09/18 07:58:33;;;;;;;8.33;7.53;;;22.00;1.00;;;;;;4996633;28;20921;-52
2023/09/18 08:00:59;;;;;;;13.20;8.10;;;22.20;1.00;;;;;;4996663;28;20188;-51
2023/09/18 08:03:28;;;;;;;10.80;8.40;;;22.20;1.00;;;;;;4999990;28;20220;-51
2023/09/18 08:05:54;;;;;;;8.80;7.50;;;22.20;1.00;;;;;;4997333;28;20453;-51
2023/09/18 08:08:20;;;;;;;16.00;8.00;;;22.00;1.00;;;;;;4996970;28;20443;-52
2023/09/18 08:10:47;;;;;;;10.63;8.20;;;21.90;1.00;;;;;;5000569;28;20234;-52
2023/09/18 08:13:13;;;;;;;12.63;8.50;;;21.90;1.00;;;;;;5000388;28;20837;-51
2023/09/18 08:15:38;;;;;;;9.50;8.40;;;21.80;1.00;;;;;;4996229;28;20452;-52
2023/09/18 08:18:04;;;;;;;17.40;8.73;;;21.80;1.00;;;;;;4996549;28;20488;-52
2023/09/18 08:20:30;;;;;;;9.70;7.80;;;21.80;1.00;;;;;;4996774;28;20239;-52
2023/09/18 08:22:56;;;;;;;9.40;8.50;;;21.90;1.00;;;;;;4996204;28;20608;-51
2023/09/18 08:25:22;;;;;;;13.00;8.67;;;21.80;1.00;;;;;;4999545;28;20212;-52
2023/09/18 08:27:48;;;;;;;11.10;8.30;;;21.80;1.00;;;;;;5001467;28;20474;-51
2023/09/18 08:30:14;;;;;;;14.70;8.47;;;21.60;1.00;;;;;;5001539;28;20188;-52
2023/09/18 08:32:41;;;;;;;10.17;8.20;;;21.60;1.00;;;;;;4999894;28;20439;-51
2023/09/18 08:35:08;;;;;;;9.37;8.37;;;21.50;1.00;;;;;;5000527;28;20454;-51
2023/09/18 08:37:34;;;;;;;9.57;7.50;;;21.40;1.00;;;;;;4999961;28;20476;-51
2023/09/18 08:40:00;;;;;;;10.30;8.30;;;21.40;1.00;;;;;;5000889;28;20494;-51
2023/09/18 08:42:29;;;;;;;11.63;8.10;;;21.40;1.00;;;;;;5003050;28;20222;-51
2023/09/18 08:44:58;;;;;;;11.03;7.90;;;21.50;1.00;;;;;;5003619;28;20431;-52
2023/09/18 08:47:24;;;;;;;10.23;7.70;;;21.40;1.00;;;;;;4999802;28;20939;-51
2023/09/18 08:49:50;;;;;;;12.10;8.00;;;21.40;1.00;;;;;;5003010;28;20451;-51
2023/09/18 08:52:16;;;;;;;8.70;7.80;;;21.30;1.00;;;;;;5000462;28;20444;-50
2023/09/18 08:54:44;;;;;;;9.87;8.30;;;21.30;1.00;;;;;;4999932;28;20444;-52
2023/09/18 08:57:09;;;;;;;8.50;7.70;;;21.30;1.00;;;;;;5003431;28;20488;-52
2023/09/18 08:59:36;;;;;;;9.33;8.37;;;21.30;1.00;;;;;;5001591;28;20450;-51
2023/09/18 09:02:02;;;;;;;8.90;8.00;;;21.30;1.00;;;;;;4999754;28;20223;-50
2023/09/18 09:04:28;;;;;;;8.30;7.60;;;21.40;1.00;;;;;;5003123;28;20482;-49
2023/09/18 09:06:57;;;;;;;12.37;8.20;;;21.50;1.00;;;;;;4999767;28;20189;-52
2023/09/18 09:09:23;;;;;;;9.33;7.80;;;21.60;1.00;;;;;;5000247;28;20258;-50
2023/09/18 09:11:50;;;;;;;10.73;7.87;;;21.70;1.00;;;;;;5000083;28;20951;-50
2023/09/18 09:14:17;;;;;;;9.80;8.30;;;21.80;1.00;;;;;;4999650;28;20193;-51
2023/09/18 09:16:50;;;;;;;8.80;7.90;;;21.90;1.00;;;;;;5000281;28;20478;-53
2023/09/18 09:19:17;;;;;;;11.30;8.10;;;22.00;1.00;;;;;;5007232;28;20874;-52
2023/09/18 09:21:44;;;;;;;9.17;8.27;;;22.10;1.00;;;;;;5003150;28;20435;-51
2023/09/18 09:24:13;;;;;;;12.03;7.93;;;22.20;1.00;;;;;;5002634;28;20475;-52
2023/09/18 09:26:41;;;;;;;9.67;8.77;;;22.40;1.00;;;;;;4999067;28;20447;-53
2023/09/18 09:29:18;;;;;;;8.93;7.97;;;22.80;1.00;;;;;;5003664;28;20444;-53
2023/09/18 09:31:45;;;;;;;8.97;7.57;;;23.20;1.00;;;;;;5002944;28;20451;-51
2023/09/18 09:34:11;;;;;;;10.43;7.63;;;23.50;1.00;;;;;;4999527;28;20537;-52
2023/09/18 09:36:51;;;;;;;8.70;7.80;;;23.70;1.00;;;;;;5000389;28;20966;-52
2023/09/18 09:39:18;;;;;;;10.37;7.40;;;23.80;1.00;;;;;;5002997;28;20959;-52
2023/09/18 09:41:46;;;;;;;11.40;6.90;;;23.80;1.00;;;;;;4999581;28;20441;-52
2023/09/18 09:44:13;;;;;;;15.30;7.50;;;23.70;1.00;;;;;;4999633;28;20558;-52
2023/09/18 09:46:48;;;;;;;12.50;7.07;;;23.80;1.00;;;;;;5000004;28;20457;-49
2023/09/18 09:49:16;;;;;;;14.10;6.90;;;24.00;1.00;;;;;;4998665;28;20446;-49
2023/09/18 09:51:42;;;;;;;9.37;6.67;;;24.10;1.00;;;;;;5002754;28;20431;-50
2023/09/18 09:54:08;;;;;;;10.43;7.07;;;24.20;1.00;;;;;;5001472;28;20447;-50
2023/09/18 09:56:48;;;;;;;7.97;7.17;;;24.20;1.00;;;;;;5005033;28;20221;-50
2023/09/18 09:59:15;;;;;;;14.47;6.30;;;24.20;1.00;;;;;;5002321;28;20196;-51
2023/09/18 10:01:44;;;;;;;10.43;7.03;;;24.20;1.00;;;;;;5008232;28;20435;-51
2023/09/18 10:04:13;;;;;;;7.10;6.37;;;24.20;1.00;;;;;;5001264;28;20448;-50
2023/09/18 10:06:43;;;;;;;12.00;7.03;;;24.20;1.00;;;;;;5003062;28;20436;-51
2023/09/18 10:09:12;;;;;;;8.67;6.07;;;24.20;1.00;;;;;;5004975;28;20453;-50
2023/09/18 10:11:42;;;;;;;12.17;6.57;;;24.30;1.00;;;;;;5000932;28;20443;-50
2023/09/18 10:14:20;;;;;;;9.07;6.00;;;24.30;1.00;;;;;;4999083;28;20428;-51
2023/09/18 10:16:50;;;;;;;9.77;6.27;;;24.20;1.00;;;;;;4997942;28;20545;-50
2023/09/18 10:19:33;;;;;;;12.43;6.63;;;24.10;1.00;;;;;;4998449;28;20936;-49
2023/09/18 10:22:26;;;;;;;7.80;6.20;;;24.00;1.00;;;;;;4998673;28;20444;-50
2023/09/18 10:25:00;;;;;;;7.40;5.63;;;24.00;1.00;;;;;;5000562;28;20542;-50
2023/09/18 10:27:26;;;;;;;12.97;6.33;;;24.00;1.00;;;;;;5003343;28;20456;-51
2023/09/18 10:29:54;;;;;;;11.03;6.10;;;24.20;1.00;;;;;;5005053;28;20542;-50
2023/09/18 10:32:21;;;;;;;10.97;5.60;;;24.30;1.00;;;;;;4997757;28;20440;-50
2023/09/18 10:34:48;;;;;;;11.43;5.47;;;24.40;1.00;;;;;;5002402;28;20451;-51
2023/09/18 10:37:15;;;;;;;7.90;5.47;;;24.40;1.00;;;;;;5001495;28;20487;-50
2023/09/18 10:39:42;;;;;;;10.30;5.90;;;24.50;1.00;;;;;;5004493;28;20446;-50
2023/09/18 10:42:13;;;;;;;10.57;6.10;;;24.30;1.00;;;;;;5002975;28;20440;-50
2023/09/18 10:44:40;;;;;;;11.00;6.33;;;24.30;1.00;;;;;;5001843;28;20907;-51
2023/09/18 10:47:07;;;;;;;12.27;6.30;;;24.30;1.00;;;;;;5009487;28;20451;-54
2023/09/18 10:49:35;;;;;;;10.90;5.53;;;24.30;1.00;;;;;;5001227;28;20498;-54
2023/09/18 10:52:01;;;;;;;11.03;5.10;;;24.30;1.00;;;;;;5006544;28;20917;-54
2023/09/18 10:54:29;;;;;;;6.33;5.20;;;24.50;1.00;;;;;;5010235;28;20529;-52
2023/09/18 10:56:56;;;;;;;13.10;8.87;;;24.70;1.00;;;;;;5006841;28;20223;-54
2023/09/18 10:59:22;;;;;;;13.60;7.87;;;24.90;1.00;;;;;;5001484;28;20435;-54
2023/09/18 11:01:48;;;;;;;78.93;51.57;;;25.10;1.00;;;;;;4999780;28;20547;-53
2023/09/18 11:04:17;;;;;;;11.47;5.57;;;25.10;1.00;;;;;;5008541;28;21015;-53
2023/09/18 11:06:55;;;;;;;10.07;6.03;;;25.00;1.00;;;;;;5001410;28;20198;-54
2023/09/18 11:09:25;;;;;;;9.23;5.80;;;24.90;1.00;;;;;;4996725;28;21029;-54
2023/09/18 11:11:57;;;;;;;12.50;5.53;;;25.30;1.00;;;;;;4996961;28;20443;-53
2023/09/18 11:14:40;;;;;;;6.60;5.13;;;25.60;1.00;;;;;;5002443;28;20537;-54
2023/09/18 11:17:06;;;;;;;7.90;5.10;;;25.90;1.00;;;;;;5000140;28;20484;-55
2023/09/18 11:19:31;;;;;;;6.87;4.93;;;25.80;1.00;;;;;;4997361;28;20446;-55
2023/09/18 11:22:08;;;;;;;12.30;5.60;;;25.60;1.00;;;;;;5000693;28;20192;-55
2023/09/18 11:24:33;;;;;;;7.10;4.40;;;25.30;1.00;;;;;;4998366;28;20196;-55
2023/09/18 11:26:59;;;;;;;8.70;5.40;;;25.30;1.00;;;;;;5001756;28;20444;-54
2023/09/18 11:29:28;;;;;;;9.70;5.00;;;25.30;1.00;;;;;;5001562;28;20211;-54
2023/09/18 11:31:57;;;;;;;7.10;4.60;;;25.30;1.00;;;;;;4997414;28;20995;-54
2023/09/18 11:34:37;;;;;;;9.50;5.37;;;25.30;1.00;;;;;;5000188;28;20904;-52
2023/09/18 11:37:25;;;;;;;10.20;4.60;;;25.20;1.00;;;;;;4997177;28;20487;-54
2023/09/18 11:39:51;;;;;;;12.03;4.13;;;25.00;1.00;;;;;;4996688;28;20436;-54
2023/09/18 11:42:26;;;;;;;6.37;4.90;;;25.10;1.00;;;;;;4996202;28;20462;-53
2023/09/18 11:44:52;;;;;;;8.60;4.73;;;25.10;1.00;;;;;;4998082;28;20184;-54
2023/09/18 11:47:24;;;;;;;7.90;4.30;;;25.10;1.00;;;;;;5002075;28;20443;-56
2023/09/18 11:49:57;;;;;;;11.20;5.23;;;25.00;1.00;;;;;;5001009;28;20451;-54
2023/09/18 11:52:28;;;;;;;10.07;4.67;;;24.80;1.00;;;;;;5000961;28;20451;-55
2023/09/18 11:54:56;;;;;;;9.30;4.60;;;24.80;1.00;;;;;;4996681;28;20543;-55
2023/09/18 11:57:22;;;;;;;9.30;4.40;;;24.70;1.00;;;;;;4997407;28;20512;-53
2023/09/18 11:59:50;;;;;;;7.00;4.57;;;24.80;1.00;;;;;;4996554;28;20452;-55
2023/09/18 12:02:36;;;;;;;9.83;4.83;;;24.70;1.00;;;;;;4996949;28;20197;-53
2023/09/18 12:05:18;;;;;;;10.47;5.03;;;24.70;1.00;;;;;;5001581;28;20455;-56
2023/09/18 12:07:45;;;;;;;12.63;4.97;;;24.70;1.00;;;;;;5002691;28;20487;-54
2023/09/18 12:10:21;;;;;;;13.13;4.90;;;24.70;1.00;;;;;;5001460;28;20452;-54
2023/09/18 12:12:47;;;;;;;9.70;4.27;;;24.70;1.00;;;;;;4996406;28;20458;-54
2023/09/18 12:15:15;;;;;;;8.63;4.63;;;24.70;1.00;;;;;;4996623;28;20447;-54
2023/09/18 12:17:40;;;;;;;6.60;4.50;;;24.60;1.00;;;;;;4997592;28;20475;-54
2023/09/18 12:20:07;;;;;;;11.03;4.87;;;24.70;1.00;;;;;;4999358;28;20461;-53
2023/09/18 12:22:35;;;;;;;7.97;4.70;;;24.80;1.00;;;;;;4994845;28;21292;-54
2023/09/18 12:25:14;;;;;;;10.70;5.23;;;24.90;1.00;;;;;;4997807;28;20435;-54
2023/09/18 12:27:41;;;;;;;8.53;4.10;;;24.90;1.00;;;;;;5001140;28;20443;-54
2023/09/18 12:30:08;;;;;;;11.10;4.20;;;24.90;1.00;;;;;;4995368;28;20452;-54
2023/09/18 12:32:37;;;;;;;9.27;4.70;;;24.90;1.00;;;;;;5006686;28;20435;-55
2023/09/18 12:35:06;;;;;;;9.50;4.10;;;24.70;1.00;;;;;;5002016;28;20454;-55
2023/09/18 12:37:35;;;;;;;7.90;4.40;;;24.60;1.00;;;;;;4999433;28;20481;-55
2023/09/18 12:40:01;;;;;;;10.90;4.43;;;24.50;1.00;;;;;;4996116;28;20460;-55
2023/09/18 12:42:28;;;;;;;9.93;4.23;;;24.50;1.00;;;;;;5006012;28;20489;-54
2023/09/18 12:44:54;;;;;;;10.63;4.47;;;24.60;1.00;;;;;;5004370;28;20295;-54
2023/09/18 12:47:20;;;;;;;12.13;3.90;;;24.70;1.00;;;;;;4997475;28;20605;-54